Time;durP1;ratioP1;P1;durP2;ratioP2;P2;SDS_P1;SDS_P2;PMS_P1;PMS_P2;Temp;Humidity;BMP_temperature;BMP_pressure;BME280_temperature;BME280_humidity;BME280_pressure;Samples;Min_cycle;Max_cycle;Signal;HPM_P1;HPM_P2
2022/08/05 00:02:04;;;;;;;4.53;2.25;;;;;;;22.91;45.01;96925.03;4998302;28;20045;-62
2022/08/05 00:04:36;;;;;;;5.90;2.20;;;;;;;23.03;43.98;96929.75;5005713;28;20113;-62
2022/08/05 00:07:05;;;;;;;6.30;2.42;;;;;;;23.22;43.84;96927.19;4989919;28;20044;-61
2022/08/05 00:09:52;;;;;;;3.80;2.40;;;;;;;23.13;44.16;96930.09;4996846;28;20177;-61
2022/08/05 00:12:20;;;;;;;4.20;2.30;;;;;;;22.94;44.95;96929.84;5005690;28;20476;-62
2022/08/05 00:14:47;;;;;;;5.32;2.40;;;;;;;22.86;45.14;96932.38;5005768;28;20041;-62
2022/08/05 00:17:17;;;;;;;3.53;2.00;;;;;;;22.88;44.83;96934.78;5006128;28;20034;-61
2022/08/05 00:19:45;;;;;;;4.10;2.15;;;;;;;23.02;44.53;96936.41;5005478;28;20568;-61
2022/08/05 00:22:28;;;;;;;5.32;2.10;;;;;;;23.07;43.75;96928.69;5006009;28;20052;-61
2022/08/05 00:24:56;;;;;;;3.75;2.10;;;;;;;22.99;43.72;96932.38;5004899;28;20053;-61
2022/08/05 00:27:23;;;;;;;4.72;2.00;;;;;;;22.93;43.93;96933.78;5001000;28;20050;-62
2022/08/05 00:30:03;;;;;;;5.40;2.00;;;;;;;23.09;43.55;96942.16;5003945;28;20209;-61
2022/08/05 00:32:30;;;;;;;5.45;2.10;;;;;;;23.22;42.88;96941.00;5001423;28;20048;-62
2022/08/05 00:34:56;;;;;;;3.67;2.00;;;;;;;23.17;43.97;96959.75;4999585;28;20073;-62
2022/08/05 00:37:33;;;;;;;4.32;1.77;;;;;;;23.67;41.08;96977.13;4999287;28;20046;-62
2022/08/05 00:40:21;;;;;;;7.25;1.95;;;;;;;24.62;39.68;96974.25;5000981;28;20042;-60
2022/08/05 00:42:56;;;;;;;7.10;2.10;;;;;;;25.30;38.86;96982.69;5005683;28;20048;-60
2022/08/05 00:45:22;;;;;;;4.10;1.90;;;;;;;25.50;39.14;96988.28;5003971;28;20069;-60
2022/08/05 00:48:13;;;;;;;3.75;1.80;;;;;;;25.46;40.46;96988.19;5005954;28;20048;-61
2022/08/05 00:50:41;;;;;;;9.98;2.30;;;;;;;25.44;41.65;96999.66;5005286;28;20056;-59
2022/08/05 00:53:11;;;;;;;;;;;;;;;25.42;42.68;96990.91;5006455;28;20096;-60
2022/08/05 00:55:57;;;;;;;4.88;2.25;;;;;;;25.37;43.51;96987.59;5005714;28;19979;-61
2022/08/05 00:58:24;;;;;;;6.60;2.70;;;;;;;25.32;42.96;96981.16;5001545;28;20065;-61
2022/08/05 01:00:53;;;;;;;6.30;2.10;;;;;;;25.28;43.92;96985.81;4998909;28;20052;-60
2022/08/05 01:03:20;;;;;;;4.60;1.92;;;;;;;25.22;44.39;96998.34;5001150;28;20091;-60
2022/08/05 01:05:49;;;;;;;7.95;2.28;;;;;;;25.19;44.26;96999.88;5008904;28;20052;-57
2022/08/05 01:08:18;;;;;;;4.07;1.95;;;;;;;25.15;44.51;96987.91;5010396;28;20045;-60
2022/08/05 01:11:34;;;;;;;5.18;1.90;;;;;;;25.13;44.95;96998.50;5008667;28;20065;-61
2022/08/05 01:14:10;;;;;;;5.28;2.30;;;;;;;25.12;45.17;96993.31;5009432;28;20049;-60
2022/08/05 01:16:58;;;;;;;4.18;1.70;;;;;;;25.06;45.89;96992.81;5008627;28;20440;-59
2022/08/05 01:19:47;;;;;;;4.40;1.73;;;;;;;25.01;46.11;96996.66;5009879;28;20445;-57
2022/08/05 01:22:37;;;;;;;;;;;;;;;24.96;46.35;97005.22;5009575;28;20045;-61
2022/08/05 01:25:18;;;;;;;5.40;2.60;;;;;;;24.99;46.32;97012.00;5008962;28;20016;-62
2022/08/05 01:27:57;;;;;;;7.03;2.13;;;;;;;24.85;46.45;97016.03;5008743;28;20116;-60
2022/08/05 01:30:30;;;;;;;7.70;2.15;;;;;;;24.83;46.29;97007.22;5008515;28;20086;-60
2022/08/05 01:33:05;;;;;;;5.82;2.08;;;;;;;24.76;46.68;97005.06;5009468;28;20042;-60
2022/08/05 01:35:38;;;;;;;4.80;2.05;;;;;;;24.65;46.74;97013.09;5003489;28;20070;-60
2022/08/05 01:38:19;;;;;;;6.13;1.85;;;;;;;24.65;47.20;97013.09;4994544;28;20038;-60
2022/08/05 01:40:57;;;;;;;4.05;1.92;;;;;;;24.60;47.48;97016.13;4998134;28;20042;-60
2022/08/05 01:43:26;;;;;;;4.40;2.13;;;;;;;24.69;47.39;97007.66;4999555;28;20064;-60
2022/08/05 01:45:55;;;;;;;5.43;1.88;;;;;;;24.66;47.54;97014.69;5007652;28;20046;-61
2022/08/05 01:48:25;;;;;;;5.38;1.98;;;;;;;24.54;48.48;97010.03;5008649;28;20253;-60
2022/08/05 01:50:55;;;;;;;10.10;3.45;;;;;;;24.39;48.95;97006.06;5008150;28;20132;-60
2022/08/05 01:53:24;;;;;;;4.95;2.05;;;;;;;24.42;48.89;97005.38;5007938;28;20042;-59
2022/08/05 01:56:14;;;;;;;10.30;2.45;;;;;;;24.52;49.31;97017.91;5008752;28;20077;-60
2022/08/05 01:59:05;;;;;;;5.30;2.85;;;;;;;24.41;49.68;97022.31;5008796;28;20168;-58
2022/08/05 02:01:35;;;;;;;8.32;2.75;;;;;;;24.23;50.34;97021.81;5008086;28;20042;-60
2022/08/05 02:04:08;;;;;;;6.13;2.33;;;;;;;23.98;51.41;97036.50;5008583;28;20089;-60
2022/08/05 02:06:37;;;;;;;6.82;2.42;;;;;;;23.97;51.21;97032.13;5007490;28;20038;-60
2022/08/05 02:09:06;;;;;;;5.88;2.80;;;;;;;23.81;52.16;97043.06;5007471;28;20034;-60
2022/08/05 02:11:49;;;;;;;7.50;2.33;;;;;;;23.90;52.12;97029.97;5006357;28;20053;-58
2022/08/05 02:14:26;;;;;;;4.72;2.40;;;;;;;23.90;52.07;97029.13;5007928;28;20061;-60
2022/08/05 02:16:55;;;;;;;8.18;2.83;;;;;;;23.76;52.80;97024.78;5002724;28;20091;-58
2022/08/05 02:19:23;;;;;;;;;;;;;;;23.48;53.81;97024.72;5008508;28;20452;-60
2022/08/05 02:21:58;;;;;;;8.43;2.50;;;;;;;23.36;54.25;97025.50;5006494;28;19971;-61
2022/08/05 02:24:30;;;;;;;4.47;2.30;;;;;;;23.32;54.39;97021.78;5006885;28;20049;-57
2022/08/05 02:27:01;;;;;;;9.05;2.78;;;;;;;23.24;55.03;97024.34;4992813;28;20049;-59
2022/08/05 02:29:38;;;;;;;7.13;2.67;;;;;;;23.04;55.53;97028.81;5007875;28;20476;-60
2022/08/05 02:32:27;;;;;;;8.88;3.10;;;;;;;22.82;56.03;97038.31;5007507;28;20041;-61
2022/08/05 02:35:00;;;;;;;7.95;2.38;;;;;;;22.56;57.39;97029.13;5008054;28;20409;-60
2022/08/05 02:37:41;;;;;;;9.77;3.00;;;;;;;22.35;57.86;97038.25;5006944;28;20045;-60
2022/08/05 02:40:18;;;;;;;5.25;2.60;;;;;;;22.41;58.00;97047.09;5007863;28;20132;-59
2022/08/05 02:42:47;;;;;;;7.35;2.50;;;;;;;22.50;58.25;97057.25;5006975;28;20120;-60
2022/08/05 02:45:22;;;;;;;6.95;3.13;;;;;;;22.20;59.10;97056.22;4995706;28;20169;-60
2022/08/05 02:47:52;;;;;;;;;;;;;;;22.28;58.77;97061.97;5004771;28;20233;-61
2022/08/05 02:50:44;;;;;;;9.23;2.80;;;;;;;21.91;60.45;97071.66;4995675;28;20368;-60
2022/08/05 02:53:13;;;;;;;6.90;3.00;;;;;;;21.81;60.74;97081.13;5000494;28;20506;-60
2022/08/05 02:55:49;;;;;;;8.52;3.40;;;;;;;21.84;60.90;97082.41;4987750;28;20046;-60
2022/08/05 02:58:26;;;;;;;9.02;3.00;;;;;;;21.80;61.17;97078.69;5006043;28;20042;-60
2022/08/05 03:00:57;;;;;;;10.32;3.40;;;;;;;21.67;61.79;97081.31;4998911;28;20069;-60
2022/08/05 03:03:27;;;;;;;9.57;3.13;;;;;;;21.75;61.14;97079.72;5002531;28;20057;-60
2022/08/05 03:06:01;;;;;;;5.90;2.70;;;;;;;21.79;61.55;97085.34;5003143;28;20104;-60
2022/08/05 03:08:49;;;;;;;6.30;3.00;;;;;;;21.80;61.45;97075.94;5006880;28;20310;-59
2022/08/05 03:11:25;;;;;;;7.88;2.80;;;;;;;21.59;62.05;97067.59;5007149;28;20421;-60
2022/08/05 03:14:11;;;;;;;6.90;2.95;;;;;;;21.66;62.07;97065.13;5006716;28;20108;-57
2022/08/05 03:16:39;;;;;;;8.18;2.67;;;;;;;21.67;62.45;97058.50;5006906;28;20042;-59
2022/08/05 03:19:05;;;;;;;6.28;3.10;;;;;;;21.37;63.65;97055.72;5006513;28;20049;-59
2022/08/05 03:21:52;;;;;;;6.65;2.90;;;;;;;21.36;63.94;97065.09;5006458;28;20473;-60
2022/08/05 03:24:19;;;;;;;8.63;3.80;;;;;;;21.34;63.83;97053.63;5006860;28;20100;-59
2022/08/05 03:26:56;;;;;;;9.05;3.83;;;;;;;21.31;64.01;97060.59;5006069;28;20033;-59
2022/08/05 03:29:23;;;;;;;7.18;2.78;;;;;;;21.41;63.19;97064.94;5006983;28;20049;-59
2022/08/05 03:32:10;;;;;;;6.20;3.03;;;;;;;21.41;63.58;97051.97;5006620;28;20030;-59
2022/08/05 03:34:37;;;;;;;7.55;3.38;;;;;;;21.23;63.98;97044.94;5006605;28;20046;-59
2022/08/05 03:37:05;;;;;;;5.32;3.45;;;;;;;21.11;64.48;97046.44;5006661;28;20390;-61
2022/08/05 03:39:32;;;;;;;5.63;3.05;;;;;;;20.94;65.29;97052.00;5003975;28;20065;-60
2022/08/05 03:42:12;;;;;;;8.73;2.90;;;;;;;20.92;65.13;97061.38;5006585;28;20425;-59
2022/08/05 03:44:41;;;;;;;6.55;3.00;;;;;;;20.60;66.63;97057.22;5005813;28;20560;-60
2022/08/05 03:47:07;;;;;;;9.32;3.03;;;;;;;20.67;66.10;97052.84;5003757;28;20458;-60
2022/08/05 03:49:39;;;;;;;6.63;3.55;;;;;;;20.48;67.47;97039.44;4998039;28;20042;-60
2022/08/05 03:52:23;;;;;;;9.50;3.97;;;;;;;20.63;66.54;97035.38;4994959;28;20053;-60
2022/08/05 03:55:14;;;;;;;8.70;3.10;;;;;;;20.68;66.35;97037.16;4996031;28;20045;-60
2022/08/05 03:58:03;;;;;;;7.13;3.40;;;;;;;20.83;65.87;97046.00;4998895;28;20501;-60
2022/08/05 04:00:31;;;;;;;8.73;3.38;;;;;;;20.88;65.62;97041.16;5005237;28;20042;-61
2022/08/05 04:03:01;;;;;;;6.18;2.97;;;;;;;21.01;64.99;97042.09;5006078;28;20168;-60
2022/08/05 04:05:32;;;;;;;5.78;2.95;;;;;;;20.90;65.48;97054.59;5005717;28;20050;-60
2022/08/05 04:08:06;;;;;;;9.13;3.30;;;;;;;20.80;66.31;97061.22;4999631;28;20042;-60
2022/08/05 04:10:54;;;;;;;7.43;3.33;;;;;;;20.84;66.35;97086.13;5004924;28;20069;-60
2022/08/05 04:13:21;;;;;;;6.18;3.03;;;;;;;21.03;65.37;97094.06;4999054;28;20038;-59
2022/08/05 04:15:49;;;;;;;10.10;3.42;;;;;;;20.97;65.86;97089.88;5002956;28;20084;-59
2022/08/05 04:18:29;;;;;;;8.05;3.22;;;;;;;20.72;67.10;97117.88;5002954;28;20378;-60
2022/08/05 04:20:56;;;;;;;8.70;3.67;;;;;;;20.85;66.64;97132.59;5003589;28;20402;-60
2022/08/05 04:23:25;;;;;;;5.88;3.63;;;;;;;20.93;66.00;97141.97;5002332;28;20497;-60
2022/08/05 04:26:13;;;;;;;6.60;3.53;;;;;;;21.07;65.71;97139.03;4996671;28;20046;-56
2022/08/05 04:28:42;;;;;;;8.75;4.07;;;;;;;21.06;65.44;97153.94;5002877;28;20297;-58
2022/08/05 04:31:18;;;;;;;6.75;3.47;;;;;;;20.87;66.38;97157.03;5000589;28;20046;-60
2022/08/05 04:33:45;;;;;;;8.48;3.60;;;;;;;20.87;67.09;97168.88;5003386;28;20048;-59
2022/08/05 04:36:31;;;;;;;8.00;3.63;;;;;;;20.94;66.76;97171.13;4985094;28;20514;-58
2022/08/05 04:39:14;;;;;;;6.03;3.28;;;;;;;21.11;65.60;97181.31;4993104;28;20346;-59
2022/08/05 04:41:41;;;;;;;7.18;3.00;;;;;;;21.27;65.52;97189.06;4998137;28;20050;-60
2022/08/05 04:44:09;;;;;;;14.10;3.72;;;;;;;21.36;65.23;97178.81;5000413;28;20097;-60
2022/08/05 04:46:37;;;;;;;6.85;3.60;;;;;;;21.21;66.14;97204.13;5002221;28;20413;-60
2022/08/05 04:49:07;;;;;;;6.97;3.28;;;;;;;21.15;66.30;97228.25;5001581;28;20093;-60
2022/08/05 04:51:44;;;;;;;8.35;3.40;;;;;;;21.28;66.14;97229.22;5003491;28;20046;-60
2022/08/05 04:54:10;;;;;;;7.75;3.15;;;;;;;21.51;65.15;97238.09;4992051;28;20282;-60
2022/08/05 04:56:38;;;;;;;10.23;3.65;;;;;;;21.95;63.46;97256.44;4992320;28;20042;-60
2022/08/05 04:59:05;;;;;;;5.85;3.20;;;;;;;22.23;62.62;97278.09;4996703;28;20413;-60
2022/08/05 05:01:49;;;;;;;8.45;3.35;;;;;;;22.47;61.79;97273.88;5001061;28;20464;-59
2022/08/05 05:04:35;;;;;;;8.25;3.30;;;;;;;22.81;61.12;97285.88;4991816;28;20132;-59
2022/08/05 05:07:09;;;;;;;12.32;3.65;;;;;;;23.05;60.22;97284.44;4995665;28;20046;-59
2022/08/05 05:09:35;;;;;;;4.82;2.90;;;;;;;23.26;59.40;97286.38;5000009;28;20053;-57
2022/08/05 05:12:04;;;;;;;10.93;3.20;;;;;;;23.44;59.31;97286.25;4996262;28;20056;-58
2022/08/05 05:14:33;;;;;;;6.60;3.28;;;;;;;23.62;58.96;97297.94;4985475;28;20046;-59
2022/08/05 05:17:01;;;;;;;8.52;3.88;;;;;;;23.69;59.78;97298.19;4993217;28;20057;-59
2022/08/05 05:19:29;;;;;;;7.28;3.20;;;;;;;23.73;59.92;97306.63;5002180;28;20099;-58
2022/08/05 05:22:11;;;;;;;9.27;3.45;;;;;;;23.81;57.99;97302.91;5000857;28;20048;-59
2022/08/05 05:24:51;;;;;;;6.72;3.20;;;;;;;23.80;57.83;97309.59;4984265;28;20050;-59
2022/08/05 05:27:29;;;;;;;8.32;3.70;;;;;;;23.85;59.15;97305.84;4996391;28;20054;-58
2022/08/05 05:30:10;;;;;;;5.22;3.10;;;;;;;23.73;58.85;97301.88;4994854;28;20065;-59
2022/08/05 05:32:54;;;;;;;6.00;3.30;;;;;;;23.72;59.16;97299.44;4998260;28;20382;-59
2022/08/05 05:35:21;;;;;;;5.47;3.25;;;;;;;23.79;59.24;97302.47;5001262;28;20038;-57
2022/08/05 05:37:53;;;;;;;7.40;3.50;;;;;;;23.74;58.71;97311.78;5002966;28;21094;-59
2022/08/05 05:40:27;;;;;;;8.75;3.45;;;;;;;23.79;58.72;97324.59;4990145;28;20091;-59
2022/08/05 05:42:54;;;;;;;7.32;3.72;;;;;;;23.60;59.55;97314.03;4998157;28;20041;-59
2022/08/05 05:45:22;;;;;;;7.95;3.97;;;;;;;23.62;59.72;97320.06;4989972;28;20050;-61
2022/08/05 05:47:50;;;;;;;6.97;3.70;;;;;;;23.60;59.70;97317.63;4990581;28;20120;-61
2022/08/05 05:50:34;;;;;;;6.93;3.80;;;;;;;23.57;60.16;97328.53;5000057;28;20422;-62
2022/08/05 05:53:08;;;;;;;8.07;3.83;;;;;;;23.44;60.05;97328.47;4986854;28;20631;-61
2022/08/05 05:55:48;;;;;;;6.60;3.78;;;;;;;23.51;59.73;97322.41;4985704;28;20681;-62
2022/08/05 05:58:26;;;;;;;7.07;4.00;;;;;;;23.64;58.88;97323.28;4996215;28;20053;-62
2022/08/05 06:01:00;;;;;;;7.97;3.10;;;;;;;23.66;58.72;97309.13;4996562;28;20046;-61
2022/08/05 06:03:41;;;;;;;6.50;3.20;;;;;;;23.70;59.07;97301.75;4998638;28;20131;-60
2022/08/05 06:06:28;;;;;;;6.38;3.80;;;;;;;23.95;58.52;97293.53;4996123;28;20096;-61
2022/08/05 06:08:58;;;;;;;;;;;;;;;24.21;57.15;97284.16;5003123;28;20581;-62
2022/08/05 06:11:25;;;;;;;5.13;3.00;;;;;;;23.98;57.12;97270.72;4988676;28;19921;-61
2022/08/05 06:13:54;;;;;;;5.35;2.75;;;;;;;24.21;56.16;97268.34;4988807;28;20406;-61
2022/08/05 06:16:21;;;;;;;7.80;2.60;;;;;;;24.29;54.25;97269.41;5004945;28;20045;-61
2022/08/05 06:18:59;;;;;;;9.60;3.30;;;;;;;24.48;54.04;97277.13;5006147;28;20045;-61
2022/08/05 06:21:31;;;;;;;5.13;2.40;;;;;;;24.70;52.53;97283.31;4997327;28;20543;-61
2022/08/05 06:24:02;;;;;;;5.72;2.63;;;;;;;24.84;51.56;97296.00;4997017;28;20077;-61
2022/08/05 06:26:28;;;;;;;8.88;2.30;;;;;;;25.15;50.35;97300.91;4989560;28;20053;-62
2022/08/05 06:29:00;;;;;;;3.75;2.03;;;;;;;25.04;49.78;97308.09;5002591;28;20613;-61
2022/08/05 06:31:46;;;;;;;6.82;2.10;;;;;;;25.26;50.26;97308.72;4989683;28;20348;-61
2022/08/05 06:34:16;;;;;;;3.50;1.80;;;;;;;25.32;48.37;97305.34;5002680;28;20407;-61
2022/08/05 06:36:45;;;;;;;4.22;1.77;;;;;;;25.29;48.51;97310.78;5000951;28;20050;-61
2022/08/05 06:39:25;;;;;;;4.72;1.80;;;;;;;25.30;48.53;97309.63;4987628;28;20085;-61
2022/08/05 06:41:55;;;;;;;4.00;1.65;;;;;;;25.26;48.51;97301.22;4986170;28;20544;-61
2022/08/05 06:44:24;;;;;;;;;;;;;;;25.37;47.92;97312.63;4999807;28;20096;-62
2022/08/05 06:46:51;;;;;;;5.15;1.55;;;;;;;25.26;48.17;97326.16;5005812;28;20420;-62
2022/08/05 06:49:20;;;;;;;4.60;1.60;;;;;;;25.18;48.05;97316.81;4991586;28;20266;-61
2022/08/05 06:52:06;;;;;;;3.60;1.70;;;;;;;24.99;48.45;97320.19;4996238;28;20050;-61
2022/08/05 06:54:53;;;;;;;5.10;1.90;;;;;;;25.03;47.94;97329.44;4993518;28;20429;-61
2022/08/05 06:57:19;;;;;;;5.93;1.60;;;;;;;25.12;47.66;97331.25;5004862;28;20050;-61
2022/08/05 07:00:06;;;;;;;5.82;1.80;;;;;;;25.32;47.34;97337.81;4995436;28;20061;-61
2022/08/05 07:02:42;;;;;;;4.63;1.70;;;;;;;25.50;47.26;97334.75;5004542;28;20133;-63
2022/08/05 07:05:10;;;;;;;4.50;2.33;;;;;;;25.61;46.61;97349.72;5001838;28;20053;-62
2022/08/05 07:07:47;;;;;;;8.05;1.98;;;;;;;25.63;45.60;97355.75;4998811;28;20048;-61
2022/08/05 07:10:14;;;;;;;3.80;1.50;;;;;;;25.68;45.00;97351.88;4998836;28;20069;-62
2022/08/05 07:18:30;;;;;;;5.38;1.98;;;;;;;25.38;47.30;97374.38;4991490;28;20433;-61
2022/08/05 07:20:57;;;;;;;2.63;1.50;;;;;;;25.30;47.25;97370.59;4997713;28;20166;-61
2022/08/05 07:23:30;;;;;;;6.97;1.40;;;;;;;25.33;46.96;97367.13;5000833;28;20061;-61
2022/08/05 07:25:56;;;;;;;4.75;1.60;;;;;;;25.15;47.64;97370.16;5004917;28;20053;-62
2022/08/05 07:28:24;;;;;;;5.20;1.55;;;;;;;25.29;47.78;97380.88;5003478;28;20061;-62
2022/08/05 07:30:51;;;;;;;4.50;1.75;;;;;;;25.39;48.01;97381.53;4986175;28;20128;-61
2022/08/05 07:33:21;;;;;;;6.00;1.73;;;;;;;25.52;47.58;97383.13;4999256;28;20049;-61
2022/08/05 07:36:03;;;;;;;5.57;1.70;;;;;;;25.44;46.94;97381.28;4989532;28;20074;-61
2022/08/05 07:38:47;;;;;;;3.70;1.83;;;;;;;25.53;46.75;97376.41;4992286;28;20108;-61
2022/08/05 07:41:16;;;;;;;3.03;1.58;;;;;;;25.44;47.00;97381.28;4991808;28;20054;-61
2022/08/05 07:44:05;;;;;;;6.68;1.85;;;;;;;25.47;47.19;97388.91;4995000;28;20172;-61
2022/08/05 07:46:43;;;;;;;3.75;1.60;;;;;;;25.64;46.61;97378.69;4991077;28;20088;-61
2022/08/05 07:49:15;;;;;;;5.90;1.80;;;;;;;25.62;47.30;97386.59;4991175;28;20050;-61
2022/08/05 07:51:44;;;;;;;5.75;1.60;;;;;;;25.29;46.53;97386.44;4991879;28;20111;-60
2022/08/05 07:54:27;;;;;;;4.38;2.15;;;;;;;25.46;46.37;97385.31;5004507;28;20046;-61
2022/08/05 07:57:03;;;;;;;4.53;1.70;;;;;;;25.55;45.20;97387.16;5004199;28;20521;-61
2022/08/05 07:59:50;;;;;;;2.43;1.50;;;;;;;25.52;45.42;97383.13;4990922;28;20054;-64
2022/08/05 08:02:16;;;;;;;2.97;1.65;;;;;;;25.68;45.28;97382.38;4992884;28;20042;-64
2022/08/05 08:04:45;;;;;;;3.50;1.50;;;;;;;25.75;44.10;97376.25;4991878;28;20046;-64
2022/08/05 08:07:12;;;;;;;3.75;1.65;;;;;;;25.52;44.77;97372.03;4991427;28;20078;-64
2022/08/05 08:09:40;;;;;;;3.58;1.52;;;;;;;25.40;44.47;97364.56;5004258;28;20064;-64
2022/08/05 08:12:07;;;;;;;3.65;1.70;;;;;;;25.64;44.80;97367.63;4990824;28;20490;-64
2022/08/05 08:14:53;;;;;;;2.70;1.60;;;;;;;25.72;44.81;97372.22;4998588;28;20492;-63
2022/08/05 08:17:20;;;;;;;5.20;1.50;;;;;;;25.76;44.30;97361.22;4987981;28;20461;-64
2022/08/05 08:19:47;;;;;;;3.25;1.40;;;;;;;25.72;44.70;97369.44;4994737;28;20076;-64
2022/08/05 08:22:34;;;;;;;2.25;1.30;;;;;;;25.67;44.73;97376.06;4985863;28;20517;-63
2022/08/05 08:25:00;;;;;;;3.50;1.70;;;;;;;25.75;44.55;97374.28;4998144;28;20038;-64
2022/08/05 08:27:30;;;;;;;3.20;1.63;;;;;;;25.98;44.01;97357.06;4998220;28;20108;-62
2022/08/05 08:30:11;;;;;;;2.80;1.67;;;;;;;26.23;43.62;97337.50;4986222;28;20082;-63
2022/08/05 08:32:58;;;;;;;3.20;1.70;;;;;;;26.47;42.50;97344.88;4997076;28;20049;-63
2022/08/05 08:35:30;;;;;;;4.03;1.98;;;;;;;26.56;43.29;97332.78;5001654;28;20496;-63
2022/08/05 08:38:00;;;;;;;5.88;1.75;;;;;;;26.47;43.12;97335.75;5003340;28;20052;-63
2022/08/05 08:40:28;;;;;;;2.80;1.50;;;;;;;26.20;43.58;97330.69;4997465;28;20053;-63
2022/08/05 08:42:56;;;;;;;3.45;1.40;;;;;;;26.29;43.49;97327.78;4997675;28;20046;-63
2022/08/05 08:45:44;;;;;;;3.88;1.70;;;;;;;26.32;42.79;97329.03;4985860;28;20413;-62
2022/08/05 08:48:15;;;;;;;3.75;1.67;;;;;;;26.33;42.69;97322.31;4997509;28;20125;-63
2022/08/05 08:51:02;;;;;;;3.92;1.80;;;;;;;26.44;42.77;97326.19;4998122;28;20665;-63
2022/08/05 08:53:48;;;;;;;4.38;1.73;;;;;;;26.59;42.87;97321.78;4994009;28;20070;-63
2022/08/05 08:56:18;;;;;;;3.38;1.77;;;;;;;26.53;41.91;97312.09;4997841;28;20042;-63
2022/08/05 08:58:47;;;;;;;2.97;1.40;;;;;;;26.62;42.25;97320.25;4995739;28;20060;-63
2022/08/05 09:01:16;;;;;;;3.05;1.50;;;;;;;26.69;41.93;97300.16;4990710;28;20111;-63
2022/08/05 09:03:50;;;;;;;4.00;1.70;;;;;;;26.69;41.71;97303.75;4992914;28;20074;-63
2022/08/05 09:06:24;;;;;;;2.22;1.30;;;;;;;26.79;42.06;97296.81;4995141;28;20078;-63
2022/08/05 09:08:57;;;;;;;3.17;1.80;;;;;;;26.66;41.69;97298.09;4998149;28;20085;-63
2022/08/05 09:11:24;;;;;;;4.20;1.75;;;;;;;26.40;42.07;97296.72;4995154;28;20421;-64
2022/08/05 09:14:11;;;;;;;3.88;1.90;;;;;;;26.57;41.57;97292.75;4991048;28;20065;-63
2022/08/05 09:17:07;;;;;;;4.72;1.67;;;;;;;26.84;41.54;97279.09;4985373;28;20073;-63
2022/08/05 09:19:37;;;;;;;2.75;1.40;;;;;;;27.02;40.98;97282.28;4995480;28;20078;-64
2022/08/05 09:22:24;;;;;;;4.35;1.75;;;;;;;27.01;40.98;97283.44;4999627;28;20054;-64
2022/08/05 09:24:59;;;;;;;3.58;1.75;;;;;;;26.95;41.20;97284.91;4999742;28;20042;-63
2022/08/05 09:27:34;;;;;;;3.30;1.90;;;;;;;26.83;41.33;97283.81;4996227;28;20053;-63
2022/08/05 09:30:21;;;;;;;3.83;1.65;;;;;;;26.81;41.17;97277.03;4998199;28;20100;-63
2022/08/05 09:32:49;;;;;;;2.90;1.65;;;;;;;26.99;40.96;97271.91;4991946;28;20056;-63
2022/08/05 09:35:17;;;;;;;3.63;1.70;;;;;;;27.24;40.85;97266.06;5001056;28;20048;-63
2022/08/05 09:37:55;;;;;;;3.72;1.70;;;;;;;27.52;39.87;97271.38;5009425;28;20049;-63
2022/08/05 09:40:42;;;;;;;2.75;1.48;;;;;;;27.74;39.20;97268.22;4988340;28;20042;-64
2022/08/05 09:43:28;;;;;;;4.88;1.52;;;;;;;27.42;38.96;97271.16;4993239;28;20506;-64
2022/08/05 09:46:33;;;;;;;4.45;1.50;;;;;;;27.47;39.05;97276.44;4995054;28;20156;-63
2022/08/05 09:49:05;;;;;;;2.95;1.55;;;;;;;27.61;39.53;97275.91;5000520;28;20129;-63
2022/08/05 09:51:45;;;;;;;5.45;1.75;;;;;;;27.77;39.04;97273.06;5001128;28;20410;-63
2022/08/05 09:54:16;;;;;;;4.05;1.55;;;;;;;27.97;38.68;97273.00;4987329;28;20051;-63
2022/08/05 09:56:54;;;;;;;3.33;1.50;;;;;;;28.01;38.05;97274.66;4999882;28;20360;-63
2022/08/05 09:59:23;;;;;;;3.78;1.45;;;;;;;28.07;37.85;97277.94;4996247;28;20501;-63
2022/08/05 10:01:53;;;;;;;3.20;1.60;;;;;;;28.21;38.21;97276.56;4993556;28;20050;-63
2022/08/05 10:04:34;;;;;;;3.85;1.60;;;;;;;28.29;37.83;97272.75;5000276;28;20038;-63
2022/08/05 10:07:01;;;;;;;4.32;1.80;;;;;;;28.38;37.96;97275.31;5008048;28;20045;-63
2022/08/05 10:09:54;;;;;;;2.70;1.50;;;;;;;28.36;37.06;97274.88;5000918;28;20046;-63
2022/08/05 10:12:53;;;;;;;4.38;1.60;;;;;;;28.31;37.37;97276.00;4997329;28;20517;-63
2022/08/05 10:15:26;;;;;;;2.73;1.50;;;;;;;28.49;36.78;97275.47;4997760;28;20038;-63
2022/08/05 10:18:11;;;;;;;4.68;1.40;;;;;;;28.41;36.74;97280.13;5001065;28;20050;-63
2022/08/05 10:20:59;;;;;;;4.82;1.75;;;;;;;28.51;36.72;97267.53;4986587;28;20061;-63
2022/08/05 10:23:36;;;;;;;3.72;1.92;;;;;;;28.80;36.50;97267.97;5000641;28;20046;-63
2022/08/05 10:26:23;;;;;;;3.40;1.52;;;;;;;29.03;35.71;97259.53;4991421;28;20722;-63
2022/08/05 10:28:58;;;;;;;1.95;1.30;;;;;;;29.13;35.59;97274.81;4995137;28;20042;-63
2022/08/05 10:31:25;;;;;;;5.38;1.80;;;;;;;28.89;35.98;97270.47;4991020;28;20050;-64
2022/08/05 10:34:12;;;;;;;2.42;1.42;;;;;;;29.03;35.80;97262.34;4993127;28;20053;-63
2022/08/05 10:36:40;;;;;;;2.22;1.40;;;;;;;29.11;35.60;97262.44;4998405;28;20145;-64
2022/08/05 10:39:11;;;;;;;5.22;1.67;;;;;;;29.19;35.12;97264.13;4991952;28;20473;-63
2022/08/05 10:42:01;;;;;;;3.30;1.45;;;;;;;28.95;35.64;97263.41;4995917;28;20050;-63
2022/08/05 10:44:31;;;;;;;5.18;1.60;;;;;;;29.18;35.33;97266.09;4988637;28;20125;-64
2022/08/05 10:46:58;;;;;;;2.50;1.40;;;;;;;29.09;34.95;97262.81;4994254;28;20109;-63
2022/08/05 10:49:25;;;;;;;3.17;1.52;;;;;;;29.23;35.07;97247.44;4993975;28;20517;-63
2022/08/05 10:52:43;;;;;;;4.93;1.48;;;;;;;29.53;34.53;97257.75;4993773;28;20043;-64
2022/08/05 10:55:16;;;;;;;2.45;1.42;;;;;;;29.45;34.49;97259.66;4992732;28;20065;-63
2022/08/05 10:57:45;;;;;;;3.72;1.45;;;;;;;29.53;34.25;97260.56;4987723;28;20053;-63
2022/08/05 11:00:21;;;;;;;9.00;1.85;;;;;;;29.44;34.40;97256.03;4988924;28;20389;-63
2022/08/05 11:03:08;;;;;;;5.28;1.85;;;;;;;29.36;34.14;97251.56;4987692;28;20498;-63
2022/08/05 11:06:09;;;;;;;4.10;1.80;;;;;;;29.35;34.41;97255.56;4987747;28;20050;-63
2022/08/05 11:09:11;;;;;;;4.47;1.52;;;;;;;29.63;34.40;97248.69;4999596;28;20049;-63
2022/08/05 11:11:45;;;;;;;3.78;1.60;;;;;;;29.65;34.01;97256.69;4998355;28;20046;-63
2022/08/05 11:14:35;;;;;;;3.50;1.45;;;;;;;29.82;33.57;97258.06;4985318;28;20035;-63
2022/08/05 11:17:32;;;;;;;2.63;1.38;;;;;;;29.89;33.54;97263.72;4992028;28;21130;-64
2022/08/05 11:20:38;;;;;;;4.20;2.15;;;;;;;30.11;33.55;97259.13;4994041;28;20566;-63
2022/08/05 11:23:31;;;;;;;3.13;1.63;;;;;;;30.23;33.19;97260.88;4997995;28;20449;-63
2022/08/05 11:26:20;;;;;;;3.00;1.50;;;;;;;30.26;32.82;97261.25;4996517;28;20125;-63
2022/08/05 11:28:57;;;;;;;3.58;2.03;;;;;;;30.57;32.35;97265.47;4999641;28;20572;-63
2022/08/05 11:31:42;;;;;;;3.85;1.58;;;;;;;30.63;32.07;97263.13;4995409;28;20057;-63
2022/08/05 11:34:39;;;;;;;2.58;1.42;;;;;;;30.85;31.82;97266.88;5002339;28;20409;-63
2022/08/05 11:37:38;;;;;;;3.90;1.63;;;;;;;30.54;31.32;97262.69;5002881;28;20042;-63
2022/08/05 11:40:57;;;;;;;3.95;1.50;;;;;;;30.88;31.38;97268.88;4994603;28;20112;-63
2022/08/05 11:43:54;;;;;;;4.00;1.63;;;;;;;31.02;31.68;97257.00;4993723;28;20042;-64
2022/08/05 11:46:39;;;;;;;3.85;1.55;;;;;;;30.88;32.00;97251.34;4992523;28;20253;-63
2022/08/05 11:49:25;;;;;;;3.85;1.50;;;;;;;30.99;32.11;97256.97;5000004;28;20042;-63
2022/08/05 11:51:53;;;;;;;4.28;1.60;;;;;;;30.78;32.57;97266.03;4996332;28;20420;-63
2022/08/05 11:54:26;;;;;;;2.42;1.42;;;;;;;30.67;32.28;97257.56;4992500;28;20115;-62
2022/08/05 11:57:01;;;;;;;3.22;1.35;;;;;;;30.48;32.63;97259.44;4992283;28;20489;-62
2022/08/05 11:59:47;;;;;;;2.38;1.40;;;;;;;30.63;32.76;97254.75;4994554;28;20092;-63
2022/08/05 12:02:16;;;;;;;4.68;1.55;;;;;;;30.77;32.59;97254.06;5001505;28;20081;-62
2022/08/05 12:05:01;;;;;;;3.78;1.50;;;;;;;30.93;32.07;97250.97;4996871;28;20042;-63
2022/08/05 12:07:36;;;;;;;3.15;1.58;;;;;;;31.08;32.40;97245.41;4986374;28;20074;-63
2022/08/05 12:10:26;;;;;;;4.90;1.77;;;;;;;31.30;31.66;97260.31;5001967;28;20038;-63
2022/08/05 12:13:16;;;;;;;2.70;1.50;;;;;;;31.41;31.80;97246.38;4986295;28;20050;-63
2022/08/05 12:16:16;;;;;;;3.50;1.70;;;;;;;31.43;30.89;97254.38;4996010;28;20073;-63
2022/08/05 12:18:46;;;;;;;2.78;1.65;;;;;;;31.35;31.31;97245.97;4999040;28;20417;-63
2022/08/05 12:21:30;;;;;;;2.92;1.40;;;;;;;31.36;31.14;97249.56;4998386;28;20462;-62
2022/08/05 12:24:12;;;;;;;3.78;1.70;;;;;;;31.32;31.29;97246.75;4999250;28;20049;-63